aviador You're here:

KGEG Decoded Metar

SPOKANE in WA, USA
Report Time2017-12-11 08:53:00
UTC Time2017-12-11 09:10:29
Flight Rules ifr IFR
Wind360° at 05 kt
W.Decomp.*RWY 03: 3.3 kt HW 3.7 kt LCW
RWY 07: 0.2 kt HW 5 kt LCW
Visibility9999 m
Phenomena:N/A
Clouds:Few 003 Hf
Overcast 006 Hf
Ceiling600 ft
Temp-4°C (ISA -14)
Dew Point-4°C (100% RH)
AAT-8.3°C
QNH1036 hPa
Density Alt-39 ft
Elevation2,411 ft
Report Wrong Elevation
Raw Report
KGEG 110853Z 36005KT 10SM FEW003 OVC006 M04/M04 A3059 RMK AO2
SLP386 T10391044 58001=

Extra information for KGEG:More info

Metar Taf Metar & Taf Last 4 Metars F.Rules Stats Wind Profile Meteogram Temp Stats Airport Information Weather charts Add Link Nearby VenuesMetar ALERT Operation Metar Decoded Social comments

AIRNAV info for KGEG